sensor_id;sensor_type;location;lat;lon;timestamp;pressure;altitude;pressure_sealevel;temperature;humidity
5966;BME280;3009;43.224;27.976;2023-11-18T00:01:33;99478.69;;;9.98;100.00
5966;BME280;3009;43.224;27.976;2023-11-18T00:04:02;99485.28;;;10.01;100.00
5966;BME280;3009;43.224;27.976;2023-11-18T00:06:32;99489.22;;;10.03;100.00
5966;BME280;3009;43.224;27.976;2023-11-18T00:09:01;99481.19;;;10.03;100.00
5966;BME280;3009;43.224;27.976;2023-11-18T00:11:29;99484.78;;;10.07;100.00
5966;BME280;3009;43.224;27.976;2023-11-18T00:13:57;99488.75;;;10.01;100.00
5966;BME280;3009;43.224;27.976;2023-11-18T00:16:26;99495.28;;;10.13;100.00
5966;BME280;3009;43.224;27.976;2023-11-18T00:18:56;99494.63;;;10.16;100.00
5966;BME280;3009;43.224;27.976;2023-11-18T00:21:25;99497.31;;;10.16;100.00
5966;BME280;3009;43.224;27.976;2023-11-18T00:23:56;99491.31;;;10.19;100.00
5966;BME280;3009;43.224;27.976;2023-11-18T00:26:24;99483.34;;;10.31;100.00
5966;BME280;3009;43.224;27.976;2023-11-18T00:28:52;99485.53;;;10.38;100.00
5966;BME280;3009;43.224;27.976;2023-11-18T00:31:21;99477.50;;;10.29;100.00
5966;BME280;3009;43.224;27.976;2023-11-18T00:33:49;99484.19;;;10.23;100.00
5966;BME280;3009;43.224;27.976;2023-11-18T00:36:18;99484.72;;;10.16;100.00
5966;BME280;3009;43.224;27.976;2023-11-18T00:38:47;99461.38;;;10.17;100.00
5966;BME280;3009;43.224;27.976;2023-11-18T00:41:17;99459.09;;;10.06;100.00
5966;BME280;3009;43.224;27.976;2023-11-18T00:43:45;99464.72;;;10.14;100.00
5966;BME280;3009;43.224;27.976;2023-11-18T00:46:14;99466.28;;;10.15;100.00
5966;BME280;3009;43.224;27.976;2023-11-18T00:48:42;99454.38;;;10.24;100.00
5966;BME280;3009;43.224;27.976;2023-11-18T00:51:10;99449.09;;;10.16;100.00
5966;BME280;3009;43.224;27.976;2023-11-18T00:53:39;99451.38;;;10.26;100.00
5966;BME280;3009;43.224;27.976;2023-11-18T00:56:07;99445.38;;;10.29;100.00
5966;BME280;3009;43.224;27.976;2023-11-18T00:58:40;99440.78;;;10.29;100.00
5966;BME280;3009;43.224;27.976;2023-11-18T01:01:09;99432.75;;;10.29;100.00
5966;BME280;3009;43.224;27.976;2023-11-18T01:03:37;99422.13;;;10.21;100.00
5966;BME280;3009;43.224;27.976;2023-11-18T01:06:06;99416.91;;;10.03;100.00
5966;BME280;3009;43.224;27.976;2023-11-18T01:08:35;99424.28;;;10.06;100.00
5966;BME280;3009;43.224;27.976;2023-11-18T01:11:03;99418.47;;;10.04;100.00
5966;BME280;3009;43.224;27.976;2023-11-18T01:13:32;99403.63;;;10.07;100.00
5966;BME280;3009;43.224;27.976;2023-11-18T01:16:02;99405.84;;;10.05;100.00
5966;BME280;3009;43.224;27.976;2023-11-18T01:18:31;99400.84;;;10.03;100.00
5966;BME280;3009;43.224;27.976;2023-11-18T01:21:00;99405.03;;;9.92;100.00
5966;BME280;3009;43.224;27.976;2023-11-18T01:23:28;99387.13;;;9.84;100.00
5966;BME280;3009;43.224;27.976;2023-11-18T01:25:56;99386.63;;;9.90;100.00
5966;BME280;3009;43.224;27.976;2023-11-18T01:28:25;99388.44;;;9.78;100.00
5966;BME280;3009;43.224;27.976;2023-11-18T01:30:56;99391.00;;;9.74;100.00
5966;BME280;3009;43.224;27.976;2023-11-18T01:33:26;99385.16;;;9.72;100.00
5966;BME280;3009;43.224;27.976;2023-11-18T01:35:54;99380.84;;;9.80;100.00
5966;BME280;3009;43.224;27.976;2023-11-18T01:38:23;99379.03;;;9.71;100.00
5966;BME280;3009;43.224;27.976;2023-11-18T01:40:52;99362.25;;;9.62;100.00
5966;BME280;3009;43.224;27.976;2023-11-18T01:43:21;99362.91;;;9.59;100.00
5966;BME280;3009;43.224;27.976;2023-11-18T01:45:50;99359.31;;;9.55;100.00
5966;BME280;3009;43.224;27.976;2023-11-18T01:48:20;99357.69;;;9.63;100.00
5966;BME280;3009;43.224;27.976;2023-11-18T01:50:51;99355.81;;;9.63;100.00
5966;BME280;3009;43.224;27.976;2023-11-18T01:53:20;99331.38;;;9.65;100.00
5966;BME280;3009;43.224;27.976;2023-11-18T01:55:49;99320.69;;;9.65;100.00
5966;BME280;3009;43.224;27.976;2023-11-18T01:58:17;99308.59;;;9.58;100.00
5966;BME280;3009;43.224;27.976;2023-11-18T02:00:46;99309.78;;;9.49;100.00
5966;BME280;3009;43.224;27.976;2023-11-18T02:03:15;99295.94;;;9.47;100.00
5966;BME280;3009;43.224;27.976;2023-11-18T02:05:44;99290.78;;;9.42;100.00
5966;BME280;3009;43.224;27.976;2023-11-18T02:08:14;99290.66;;;9.38;100.00
5966;BME280;3009;43.224;27.976;2023-11-18T02:10:47;99302.66;;;9.32;100.00
5966;BME280;3009;43.224;27.976;2023-11-18T02:13:22;99289.53;;;9.39;100.00
5966;BME280;3009;43.224;27.976;2023-11-18T02:15:53;99305.19;;;9.28;100.00
5966;BME280;3009;43.224;27.976;2023-11-18T02:18:24;99301.38;;;9.08;100.00
5966;BME280;3009;43.224;27.976;2023-11-18T02:20:55;99281.75;;;9.04;100.00
5966;BME280;3009;43.224;27.976;2023-11-18T02:23:26;99287.72;;;9.01;100.00
5966;BME280;3009;43.224;27.976;2023-11-18T02:25:55;99289.44;;;9.05;100.00
5966;BME280;3009;43.224;27.976;2023-11-18T02:28:24;99286.69;;;8.93;100.00
5966;BME280;3009;43.224;27.976;2023-11-18T02:30:56;99314.47;;;9.01;100.00
5966;BME280;3009;43.224;27.976;2023-11-18T02:33:35;99306.00;;;8.99;100.00
5966;BME280;3009;43.224;27.976;2023-11-18T02:36:12;99315.44;;;8.96;100.00
5966;BME280;3009;43.224;27.976;2023-11-18T02:38:47;99324.34;;;8.79;100.00
5966;BME280;3009;43.224;27.976;2023-11-18T02:41:20;99343.03;;;8.79;100.00
5966;BME280;3009;43.224;27.976;2023-11-18T02:43:50;99356.41;;;8.79;100.00
5966;BME280;3009;43.224;27.976;2023-11-18T02:46:20;99358.03;;;8.63;100.00
5966;BME280;3009;43.224;27.976;2023-11-18T02:48:50;99358.00;;;8.72;100.00
5966;BME280;3009;43.224;27.976;2023-11-18T02:51:20;99348.19;;;8.84;100.00
5966;BME280;3009;43.224;27.976;2023-11-18T02:53:49;99341.94;;;8.80;100.00
5966;BME280;3009;43.224;27.976;2023-11-18T02:56:19;99348.75;;;8.60;100.00
5966;BME280;3009;43.224;27.976;2023-11-18T02:58:47;99351.72;;;8.67;100.00
5966;BME280;3009;43.224;27.976;2023-11-18T03:01:16;99357.25;;;8.62;100.00
5966;BME280;3009;43.224;27.976;2023-11-18T03:03:46;99341.88;;;8.59;100.00
5966;BME280;3009;43.224;27.976;2023-11-18T03:06:15;99345.00;;;8.61;100.00
5966;BME280;3009;43.224;27.976;2023-11-18T03:08:43;99349.28;;;8.54;100.00
5966;BME280;3009;43.224;27.976;2023-11-18T03:11:11;99336.09;;;8.48;100.00
5966;BME280;3009;43.224;27.976;2023-11-18T03:13:42;99337.81;;;8.53;100.00
5966;BME280;3009;43.224;27.976;2023-11-18T03:16:10;99319.91;;;8.45;100.00
5966;BME280;3009;43.224;27.976;2023-11-18T03:18:40;99325.06;;;8.41;100.00
5966;BME280;3009;43.224;27.976;2023-11-18T03:21:11;99323.81;;;8.39;100.00
5966;BME280;3009;43.224;27.976;2023-11-18T03:23:40;99331.84;;;8.39;100.00
5966;BME280;3009;43.224;27.976;2023-11-18T03:26:09;99320.50;;;8.42;100.00
5966;BME280;3009;43.224;27.976;2023-11-18T03:28:38;99323.81;;;8.39;100.00
5966;BME280;3009;43.224;27.976;2023-11-18T03:31:08;99344.28;;;8.26;100.00
5966;BME280;3009;43.224;27.976;2023-11-18T03:33:39;99340.34;;;8.32;100.00
5966;BME280;3009;43.224;27.976;2023-11-18T03:36:08;99334.84;;;8.28;100.00
5966;BME280;3009;43.224;27.976;2023-11-18T03:38:39;99340.97;;;8.29;100.00
5966;BME280;3009;43.224;27.976;2023-11-18T03:41:07;99336.28;;;8.26;100.00
5966;BME280;3009;43.224;27.976;2023-11-18T03:43:37;99321.03;;;8.26;100.00
5966;BME280;3009;43.224;27.976;2023-11-18T03:46:08;99338.63;;;8.27;100.00
5966;BME280;3009;43.224;27.976;2023-11-18T03:48:37;99328.72;;;8.37;100.00
5966;BME280;3009;43.224;27.976;2023-11-18T03:51:06;99326.34;;;8.44;100.00
5966;BME280;3009;43.224;27.976;2023-11-18T03:53:34;99339.72;;;8.26;100.00
5966;BME280;3009;43.224;27.976;2023-11-18T03:56:03;99336.22;;;8.34;100.00
5966;BME280;3009;43.224;27.976;2023-11-18T03:58:31;99344.72;;;8.37;100.00
5966;BME280;3009;43.224;27.976;2023-11-18T04:01:01;99348.19;;;8.28;100.00
5966;BME280;3009;43.224;27.976;2023-11-18T04:03:31;99328.72;;;8.37;100.00
5966;BME280;3009;43.224;27.976;2023-11-18T04:05:59;99329.03;;;8.35;100.00
5966;BME280;3009;43.224;27.976;2023-11-18T04:08:28;99313.78;;;8.36;100.00
5966;BME280;3009;43.224;27.976;2023-11-18T04:10:56;99307.66;;;8.35;100.00
5966;BME280;3009;43.224;27.976;2023-11-18T04:13:25;99302.31;;;8.35;100.00
5966;BME280;3009;43.224;27.976;2023-11-18T04:15:53;99299.16;;;8.33;100.00
5966;BME280;3009;43.224;27.976;2023-11-18T04:18:21;99296.50;;;8.33;100.00
5966;BME280;3009;43.224;27.976;2023-11-18T04:20:52;99305.00;;;8.35;100.00
5966;BME280;3009;43.224;27.976;2023-11-18T04:23:20;99288.00;;;8.40;100.00
5966;BME280;3009;43.224;27.976;2023-11-18T04:25:49;99280.97;;;8.26;100.00
5966;BME280;3009;43.224;27.976;2023-11-18T04:28:18;99274.53;;;8.27;100.00
5966;BME280;3009;43.224;27.976;2023-11-18T04:30:47;99274.38;;;8.15;100.00
5966;BME280;3009;43.224;27.976;2023-11-18T04:33:15;99268.78;;;8.08;100.00
5966;BME280;3009;43.224;27.976;2023-11-18T04:35:46;99260.78;;;8.08;100.00
5966;BME280;3009;43.224;27.976;2023-11-18T04:38:15;99251.31;;;8.10;100.00
5966;BME280;3009;43.224;27.976;2023-11-18T04:40:44;99245.63;;;8.21;100.00
5966;BME280;3009;43.224;27.976;2023-11-18T04:43:12;99234.81;;;8.26;100.00
5966;BME280;3009;43.224;27.976;2023-11-18T04:45:43;99239.03;;;8.18;100.00
5966;BME280;3009;43.224;27.976;2023-11-18T04:48:11;99241.47;;;8.02;100.00
5966;BME280;3009;43.224;27.976;2023-11-18T04:50:41;99244.25;;;8.06;100.00
5966;BME280;3009;43.224;27.976;2023-11-18T04:53:09;99237.53;;;8.08;100.00
5966;BME280;3009;43.224;27.976;2023-11-18T04:55:40;99229.81;;;8.07;100.00
5966;BME280;3009;43.224;27.976;2023-11-18T04:58:09;99233.16;;;7.95;100.00
5966;BME280;3009;43.224;27.976;2023-11-18T05:00:37;99226.84;;;7.99;100.00
5966;BME280;3009;43.224;27.976;2023-11-18T05:03:06;99223.09;;;8.01;100.00
5966;BME280;3009;43.224;27.976;2023-11-18T05:05:36;99214.59;;;7.98;100.00
5966;BME280;3009;43.224;27.976;2023-11-18T05:08:05;99222.78;;;8.02;100.00
5966;BME280;3009;43.224;27.976;2023-11-18T05:10:35;99252.47;;;8.01;100.00
5966;BME280;3009;43.224;27.976;2023-11-18T05:13:06;99248.41;;;7.94;100.00
5966;BME280;3009;43.224;27.976;2023-11-18T05:15:35;99251.69;;;7.91;100.00
5966;BME280;3009;43.224;27.976;2023-11-18T05:18:04;99247.44;;;7.90;100.00
5966;BME280;3009;43.224;27.976;2023-11-18T05:20:36;99223.44;;;7.81;100.00
5966;BME280;3009;43.224;27.976;2023-11-18T05:23:05;99232.91;;;7.70;100.00
5966;BME280;3009;43.224;27.976;2023-11-18T05:25:34;99240.25;;;7.73;100.00
5966;BME280;3009;43.224;27.976;2023-11-18T05:28:03;99241.97;;;7.78;100.00
5966;BME280;3009;43.224;27.976;2023-11-18T05:30:33;99260.97;;;7.68;100.00
5966;BME280;3009;43.224;27.976;2023-11-18T05:33:02;99264.75;;;7.67;100.00
5966;BME280;3009;43.224;27.976;2023-11-18T05:35:32;99242.31;;;7.68;100.00
5966;BME280;3009;43.224;27.976;2023-11-18T05:38:02;99231.47;;;7.73;100.00
5966;BME280;3009;43.224;27.976;2023-11-18T05:40:33;99227.84;;;7.77;100.00
5966;BME280;3009;43.224;27.976;2023-11-18T05:43:05;99221.41;;;7.70;100.00
5966;BME280;3009;43.224;27.976;2023-11-18T05:45:44;99209.47;;;7.76;100.00
5966;BME280;3009;43.224;27.976;2023-11-18T05:48:33;99198.50;;;7.77;100.00
5966;BME280;3009;43.224;27.976;2023-11-18T05:51:01;99174.03;;;7.75;100.00
5966;BME280;3009;43.224;27.976;2023-11-18T05:53:30;99140.59;;;7.69;100.00
5966;BME280;3009;43.224;27.976;2023-11-18T05:56:00;99159.59;;;7.68;100.00
5966;BME280;3009;43.224;27.976;2023-11-18T05:58:28;99155.34;;;7.67;100.00
5966;BME280;3009;43.224;27.976;2023-11-18T06:00:58;99184.69;;;7.67;100.00
5966;BME280;3009;43.224;27.976;2023-11-18T06:03:26;99205.41;;;7.70;100.00
5966;BME280;3009;43.224;27.976;2023-11-18T06:05:55;99199.44;;;7.73;100.00
5966;BME280;3009;43.224;27.976;2023-11-18T06:08:23;99202.91;;;7.73;100.00
5966;BME280;3009;43.224;27.976;2023-11-18T06:10:52;99185.97;;;7.69;100.00
5966;BME280;3009;43.224;27.976;2023-11-18T06:13:23;99185.81;;;7.66;100.00
5966;BME280;3009;43.224;27.976;2023-11-18T06:15:54;99177.81;;;7.66;100.00
5966;BME280;3009;43.224;27.976;2023-11-18T06:18:24;99187.84;;;7.69;100.00
5966;BME280;3009;43.224;27.976;2023-11-18T06:20:52;99201.66;;;7.71;100.00
5966;BME280;3009;43.224;27.976;2023-11-18T06:23:21;99201.50;;;7.67;100.00
5966;BME280;3009;43.224;27.976;2023-11-18T06:25:49;99194.47;;;7.62;100.00
5966;BME280;3009;43.224;27.976;2023-11-18T06:28:18;99207.75;;;7.71;100.00
5966;BME280;3009;43.224;27.976;2023-11-18T06:30:46;99208.56;;;7.72;100.00
5966;BME280;3009;43.224;27.976;2023-11-18T06:33:16;99210.75;;;7.70;100.00
5966;BME280;3009;43.224;27.976;2023-11-18T06:35:46;99206.84;;;7.67;100.00
5966;BME280;3009;43.224;27.976;2023-11-18T06:38:14;99202.75;;;7.70;100.00
5966;BME280;3009;43.224;27.976;2023-11-18T06:40:45;99202.28;;;7.68;100.00
5966;BME280;3009;43.224;27.976;2023-11-18T06:43:14;99200.44;;;7.59;100.00
5966;BME280;3009;43.224;27.976;2023-11-18T06:45:43;99185.50;;;7.67;100.00
5966;BME280;3009;43.224;27.976;2023-11-18T06:48:12;99200.72;;;7.67;100.00
5966;BME280;3009;43.224;27.976;2023-11-18T06:50:41;99207.00;;;7.71;100.00
5966;BME280;3009;43.224;27.976;2023-11-18T06:53:13;99224.09;;;7.70;100.00
5966;BME280;3009;43.224;27.976;2023-11-18T06:55:42;99233.22;;;7.69;100.00
5966;BME280;3009;43.224;27.976;2023-11-18T06:58:11;99237.47;;;7.61;100.00
5966;BME280;3009;43.224;27.976;2023-11-18T07:00:40;99222.22;;;7.61;100.00
5966;BME280;3009;43.224;27.976;2023-11-18T07:03:08;99224.41;;;7.68;100.00
5966;BME280;3009;43.224;27.976;2023-11-18T07:05:36;99217.53;;;7.67;100.00
5966;BME280;3009;43.224;27.976;2023-11-18T07:08:05;99202.28;;;7.68;100.00
5966;BME280;3009;43.224;27.976;2023-11-18T07:10:36;99207.00;;;7.71;100.00
5966;BME280;3009;43.224;27.976;2023-11-18T07:13:05;99191.47;;;7.64;100.00
5966;BME280;3009;43.224;27.976;2023-11-18T07:15:35;99197.91;;;7.54;100.00
5966;BME280;3009;43.224;27.976;2023-11-18T07:18:04;99197.28;;;7.57;100.00
5966;BME280;3009;43.224;27.976;2023-11-18T07:20:33;99188.34;;;7.53;100.00
5966;BME280;3009;43.224;27.976;2023-11-18T07:23:01;99181.91;;;7.54;100.00
5966;BME280;3009;43.224;27.976;2023-11-18T07:25:30;99172.81;;;7.47;100.00
5966;BME280;3009;43.224;27.976;2023-11-18T07:28:00;99182.41;;;7.48;100.00
5966;BME280;3009;43.224;27.976;2023-11-18T07:30:28;99204.97;;;7.50;100.00
5966;BME280;3009;43.224;27.976;2023-11-18T07:32:57;99191.94;;;7.49;100.00
5966;BME280;3009;43.224;27.976;2023-11-18T07:35:27;99192.75;;;7.32;100.00
5966;BME280;3009;43.224;27.976;2023-11-18T07:37:56;99161.56;;;7.23;100.00
5966;BME280;3009;43.224;27.976;2023-11-18T07:40:25;99159.22;;;7.22;100.00
5966;BME280;3009;43.224;27.976;2023-11-18T07:42:56;99152.44;;;7.24;100.00
5966;BME280;3009;43.224;27.976;2023-11-18T07:45:34;99140.25;;;7.15;100.00
5966;BME280;3009;43.224;27.976;2023-11-18T07:48:05;99125.34;;;7.05;100.00
5966;BME280;3009;43.224;27.976;2023-11-18T07:50:34;99125.38;;;6.96;100.00
5966;BME280;3009;43.224;27.976;2023-11-18T07:53:02;99131.78;;;7.04;100.00
5966;BME280;3009;43.224;27.976;2023-11-18T07:55:33;99130.84;;;7.00;100.00
5966;BME280;3009;43.224;27.976;2023-11-18T07:58:02;99125.50;;;7.08;100.00
5966;BME280;3009;43.224;27.976;2023-11-18T08:00:32;99151.03;;;7.09;100.00
5966;BME280;3009;43.224;27.976;2023-11-18T08:03:02;99141.97;;;7.10;100.00
5966;BME280;3009;43.224;27.976;2023-11-18T08:05:34;99127.38;;;7.08;100.00
5966;BME280;3009;43.224;27.976;2023-11-18T08:08:02;99146.66;;;7.14;100.00
5966;BME280;3009;43.224;27.976;2023-11-18T08:10:31;99158.13;;;6.97;100.00
5966;BME280;3009;43.224;27.976;2023-11-18T08:12:59;99154.50;;;7.01;100.00
5966;BME280;3009;43.224;27.976;2023-11-18T08:15:28;99167.38;;;6.90;100.00
5966;BME280;3009;43.224;27.976;2023-11-18T08:17:59;99188.34;;;6.83;100.00
5966;BME280;3009;43.224;27.976;2023-11-18T08:20:29;99196.78;;;6.68;100.00
5966;BME280;3009;43.224;27.976;2023-11-18T08:22:57;99190.47;;;6.55;100.00
5966;BME280;3009;43.224;27.976;2023-11-18T08:25:26;99193.16;;;6.46;100.00
5966;BME280;3009;43.224;27.976;2023-11-18T08:27:54;99178.25;;;6.45;100.00
5966;BME280;3009;43.224;27.976;2023-11-18T08:30:22;99158.06;;;6.53;100.00
5966;BME280;3009;43.224;27.976;2023-11-18T08:32:51;99164.31;;;6.48;100.00
5966;BME280;3009;43.224;27.976;2023-11-18T08:35:21;99180.25;;;6.31;100.00
5966;BME280;3009;43.224;27.976;2023-11-18T08:37:49;99185.28;;;6.41;100.00
5966;BME280;3009;43.224;27.976;2023-11-18T08:40:18;99174.00;;;6.44;100.00
5966;BME280;3009;43.224;27.976;2023-11-18T08:42:49;99166.97;;;6.39;100.00
5966;BME280;3009;43.224;27.976;2023-11-18T08:45:19;99174.91;;;6.31;100.00
5966;BME280;3009;43.224;27.976;2023-11-18T08:47:49;99180.56;;;6.38;100.00
5966;BME280;3009;43.224;27.976;2023-11-18T08:50:22;99172.56;;;6.20;100.00
5966;BME280;3009;43.224;27.976;2023-11-18T08:52:52;99164.72;;;6.24;100.00
5966;BME280;3009;43.224;27.976;2023-11-18T08:55:27;99169.63;;;6.39;100.00
5966;BME280;3009;43.224;27.976;2023-11-18T08:58:10;99145.84;;;6.43;100.00
5966;BME280;3009;43.224;27.976;2023-11-18T09:00:48;99141.72;;;6.37;100.00
5966;BME280;3009;43.224;27.976;2023-11-18T09:03:21;99133.91;;;6.32;100.00
5966;BME280;3009;43.224;27.976;2023-11-18T09:05:58;99119.81;;;6.31;100.00
5966;BME280;3009;43.224;27.976;2023-11-18T09:08:32;99148.63;;;6.38;100.00
5966;BME280;3009;43.224;27.976;2023-11-18T09:11:02;99163.50;;;6.30;100.00
5966;BME280;3009;43.224;27.976;2023-11-18T09:13:32;99156.59;;;6.29;100.00
5966;BME280;3009;43.224;27.976;2023-11-18T09:16:04;99165.34;;;6.21;100.00
5966;BME280;3009;43.224;27.976;2023-11-18T09:18:36;99147.81;;;6.29;100.00
5966;BME280;3009;43.224;27.976;2023-11-18T09:21:11;99148.91;;;6.28;100.00
5966;BME280;3009;43.224;27.976;2023-11-18T09:23:43;99148.72;;;6.15;100.00
5966;BME280;3009;43.224;27.976;2023-11-18T09:26:14;99151.03;;;6.08;100.00
5966;BME280;3009;43.224;27.976;2023-11-18T09:28:44;99145.72;;;6.08;100.00
5966;BME280;3009;43.224;27.976;2023-11-18T09:31:12;99150.56;;;6.06;100.00
5966;BME280;3009;43.224;27.976;2023-11-18T09:33:42;99133.84;;;6.06;100.00
5966;BME280;3009;43.224;27.976;2023-11-18T09:36:21;99127.41;;;6.07;100.00
5966;BME280;3009;43.224;27.976;2023-11-18T09:38:50;99119.09;;;6.08;100.00
5966;BME280;3009;43.224;27.976;2023-11-18T09:41:22;99112.97;;;5.99;100.00
5966;BME280;3009;43.224;27.976;2023-11-18T09:43:52;99116.22;;;5.96;100.00
5966;BME280;3009;43.224;27.976;2023-11-18T09:46:25;99093.41;;;6.03;100.00
5966;BME280;3009;43.224;27.976;2023-11-18T09:49:06;99064.78;;;6.00;100.00
5966;BME280;3009;43.224;27.976;2023-11-18T09:51:44;99072.44;;;6.02;100.00
5966;BME280;3009;43.224;27.976;2023-11-18T09:54:22;99063.00;;;5.96;100.00
5966;BME280;3009;43.224;27.976;2023-11-18T09:57:04;99071.84;;;6.14;100.00
5966;BME280;3009;43.224;27.976;2023-11-18T09:59:43;99066.53;;;6.14;100.00
5966;BME280;3009;43.224;27.976;2023-11-18T10:02:20;99054.56;;;5.94;100.00
5966;BME280;3009;43.224;27.976;2023-11-18T10:04:50;99054.31;;;6.04;100.00
5966;BME280;3009;43.224;27.976;2023-11-18T10:07:27;99048.38;;;6.07;100.00
5966;BME280;3009;43.224;27.976;2023-11-18T10:10:00;99051.81;;;6.16;100.00
5966;BME280;3009;43.224;27.976;2023-11-18T10:12:30;99033.66;;;6.18;100.00
5966;BME280;3009;43.224;27.976;2023-11-18T10:14:59;99010.34;;;6.24;100.00
5966;BME280;3009;43.224;27.976;2023-11-18T10:17:41;98997.97;;;6.19;100.00
5966;BME280;3009;43.224;27.976;2023-11-18T10:20:22;99011.59;;;6.27;100.00
5966;BME280;3009;43.224;27.976;2023-11-18T10:23:07;99014.28;;;6.27;100.00
5966;BME280;3009;43.224;27.976;2023-11-18T10:25:42;99014.06;;;6.14;100.00
5966;BME280;3009;43.224;27.976;2023-11-18T10:28:27;99013.31;;;6.23;100.00
5966;BME280;3009;43.224;27.976;2023-11-18T10:30:56;99006.41;;;6.21;100.00
5966;BME280;3009;43.224;27.976;2023-11-18T10:33:26;99037.25;;;6.14;100.00
5966;BME280;3009;43.224;27.976;2023-11-18T10:35:59;99007.28;;;5.91;100.00
5966;BME280;3009;43.224;27.976;2023-11-18T10:38:33;99011.00;;;5.81;100.00
5966;BME280;3009;43.224;27.976;2023-11-18T10:41:04;98983.03;;;5.92;100.00
5966;BME280;3009;43.224;27.976;2023-11-18T10:43:33;98998.09;;;5.97;100.00
5966;BME280;3009;43.224;27.976;2023-11-18T10:46:08;98993.84;;;5.96;100.00
5966;BME280;3009;43.224;27.976;2023-11-18T10:48:41;98982.72;;;5.94;100.00
5966;BME280;3009;43.224;27.976;2023-11-18T10:51:11;98979.75;;;5.95;100.00
5966;BME280;3009;43.224;27.976;2023-11-18T10:53:42;98974.94;;;5.97;100.00
5966;BME280;3009;43.224;27.976;2023-11-18T10:56:20;98967.22;;;5.96;100.00
5966;BME280;3009;43.224;27.976;2023-11-18T10:58:55;98967.59;;;6.03;100.00
5966;BME280;3009;43.224;27.976;2023-11-18T11:01:28;98963.03;;;6.03;100.00
5966;BME280;3009;43.224;27.976;2023-11-18T11:03:59;98970.06;;;5.91;100.00
5966;BME280;3009;43.224;27.976;2023-11-18T11:06:32;98991.69;;;5.98;100.00
5966;BME280;3009;43.224;27.976;2023-11-18T11:09:03;98991.38;;;5.99;100.00
5966;BME280;3009;43.224;27.976;2023-11-18T11:11:47;98989.31;;;5.96;100.00
5966;BME280;3009;43.224;27.976;2023-11-18T11:14:16;98993.69;;;5.92;100.00
5966;BME280;3009;43.224;27.976;2023-11-18T11:16:52;99012.13;;;5.89;100.00
5966;BME280;3009;43.224;27.976;2023-11-18T11:19:25;99028.09;;;5.89;100.00
5966;BME280;3009;43.224;27.976;2023-11-18T11:22:03;99003.25;;;6.02;100.00
5966;BME280;3009;43.224;27.976;2023-11-18T11:24:46;99022.38;;;6.04;100.00
5966;BME280;3009;43.224;27.976;2023-11-18T11:27:22;99016.09;;;6.00;100.00
5966;BME280;3009;43.224;27.976;2023-11-18T11:30:01;99012.50;;;6.05;100.00
5966;BME280;3009;43.224;27.976;2023-11-18T11:32:43;99010.78;;;6.00;100.00
5966;BME280;3009;43.224;27.976;2023-11-18T11:35:19;98991.00;;;5.83;100.00
5966;BME280;3009;43.224;27.976;2023-11-18T11:37:52;98979.56;;;5.74;100.00
5966;BME280;3009;43.224;27.976;2023-11-18T11:40:32;98970.50;;;5.84;100.00
5966;BME280;3009;43.224;27.976;2023-11-18T11:43:02;98947.34;;;5.93;100.00
5966;BME280;3009;43.224;27.976;2023-11-18T11:45:33;98922.31;;;5.94;100.00
5966;BME280;3009;43.224;27.976;2023-11-18T11:48:06;98918.28;;;5.97;100.00
5966;BME280;3009;43.224;27.976;2023-11-18T11:51:04;98866.16;;;6.05;100.00
5966;BME280;3009;43.224;27.976;2023-11-18T11:53:46;98868.19;;;6.08;100.00
5966;BME280;3009;43.224;27.976;2023-11-18T11:56:17;98881.66;;;6.11;100.00
5966;BME280;3009;43.224;27.976;2023-11-18T11:58:51;98889.63;;;6.11;100.00
5966;BME280;3009;43.224;27.976;2023-11-18T12:01:25;98903.88;;;6.15;100.00
5966;BME280;3009;43.224;27.976;2023-11-18T12:03:59;98884.31;;;6.11;100.00
5966;BME280;3009;43.224;27.976;2023-11-18T12:06:40;98896.84;;;6.11;100.00
5966;BME280;3009;43.224;27.976;2023-11-18T12:09:09;98920.16;;;6.05;100.00
5966;BME280;3009;43.224;27.976;2023-11-18T12:11:42;98910.47;;;6.09;100.00
5966;BME280;3009;43.224;27.976;2023-11-18T12:14:13;98901.84;;;6.03;100.00
5966;BME280;3009;43.224;27.976;2023-11-18T12:17:03;98914.84;;;6.05;100.00
5966;BME280;3009;43.224;27.976;2023-11-18T12:19:37;98906.56;;;5.98;100.00
5966;BME280;3009;43.224;27.976;2023-11-18T12:22:16;98888.03;;;5.93;100.00
5966;BME280;3009;43.224;27.976;2023-11-18T12:28:13;98878.97;;;5.85;100.00
5966;BME280;3009;43.224;27.976;2023-11-18T12:30:44;98892.13;;;5.81;100.00
5966;BME280;3009;43.224;27.976;2023-11-18T12:33:24;98897.91;;;5.75;100.00
5966;BME280;3009;43.224;27.976;2023-11-18T12:36:36;98884.91;;;5.73;100.00
5966;BME280;3009;43.224;27.976;2023-11-18T12:42:59;98882.72;;;5.66;100.00
5966;BME280;3009;43.224;27.976;2023-11-18T12:46:10;98886.94;;;5.67;100.00
5966;BME280;3009;43.224;27.976;2023-11-18T12:48:49;98894.13;;;5.67;100.00
5966;BME280;3009;43.224;27.976;2023-11-18T12:51:18;98886.78;;;5.64;100.00
5966;BME280;3009;43.224;27.976;2023-11-18T12:53:50;98888.03;;;5.66;100.00
5966;BME280;3009;43.224;27.976;2023-11-18T12:56:21;98879.25;;;5.66;100.00
5966;BME280;3009;43.224;27.976;2023-11-18T12:58:50;98887.72;;;5.68;100.00
5966;BME280;3009;43.224;27.976;2023-11-18T13:01:22;98892.56;;;5.66;100.00
5966;BME280;3009;43.224;27.976;2023-11-18T13:03:50;98905.41;;;5.64;100.00
5966;BME280;3009;43.224;27.976;2023-11-18T13:06:20;98907.41;;;5.58;100.00
5966;BME280;3009;43.224;27.976;2023-11-18T13:08:53;98903.03;;;5.54;100.00
5966;BME280;3009;43.224;27.976;2023-11-18T13:11:23;98883.94;;;5.52;100.00
5966;BME280;3009;43.224;27.976;2023-11-18T13:13:52;98885.94;;;5.28;100.00
5966;BME280;3009;43.224;27.976;2023-11-18T13:16:22;98889.53;;;5.32;100.00
5966;BME280;3009;43.224;27.976;2023-11-18T13:18:52;98905.63;;;5.27;100.00
5966;BME280;3009;43.224;27.976;2023-11-18T13:21:23;98862.63;;;5.17;100.00
5966;BME280;3009;43.224;27.976;2023-11-18T13:23:53;98872.28;;;5.12;100.00
5966;BME280;3009;43.224;27.976;2023-11-18T13:26:22;98874.00;;;5.08;100.00
5966;BME280;3009;43.224;27.976;2023-11-18T13:28:51;98874.13;;;5.03;100.00
5966;BME280;3009;43.224;27.976;2023-11-18T13:31:22;98860.53;;;5.05;100.00
5966;BME280;3009;43.224;27.976;2023-11-18T13:33:51;98871.00;;;5.01;100.00
5966;BME280;3009;43.224;27.976;2023-11-18T13:36:20;98868.13;;;4.89;100.00
5966;BME280;3009;43.224;27.976;2023-11-18T13:38:49;98848.44;;;4.81;100.00